Time;durP1;ratioP1;P1;durP2;ratioP2;P2;SDS_P1;SDS_P2;PMS_P1;PMS_P2;Temp;Humidity;BMP_temperature;BMP_pressure;BME280_temperature;BME280_humidity;BME280_pressure;Samples;Min_cycle;Max_cycle;Signal;HPM_P1;HPM_P2
2021/04/12 00:01:59;;;;;;;1.02;0.50;;;;;;;;;;4965821;28;20114;-64
2021/04/12 00:04:31;;;;;;;1.98;0.50;;;;;;;;;;4984128;28;20106;-64
2021/04/12 00:07:20;;;;;;;1.33;0.50;;;;;;;;;;4985476;28;20812;-64
2021/04/12 00:10:00;;;;;;;1.23;0.73;;;;;;;;;;4937785;28;20913;-64
2021/04/12 00:12:28;;;;;;;1.25;0.50;;;;;;;;;;4968675;28;21124;-64
2021/04/12 00:14:56;;;;;;;2.55;0.60;;;;;;;;;;4946054;28;20086;-64
2021/04/12 00:17:26;;;;;;;0.90;0.52;;;;;;;;;;4966907;28;20031;-63
2021/04/12 00:20:08;;;;;;;1.00;0.52;;;;;;;;;;4968164;28;20589;-64
2021/04/12 00:22:45;;;;;;;1.33;0.57;;;;;;;;;;4968834;28;20421;-64
2021/04/12 00:26:02;;;;;;;1.50;0.52;;;;;;;;;;4966595;28;20560;-64
2021/04/12 00:28:48;;;;;;;1.17;0.70;;;;;;;;;;4954155;28;20502;-64
2021/04/12 00:31:42;;;;;;;1.05;0.63;;;;;;;;;;4954479;28;20034;-64
2021/04/12 00:34:24;;;;;;;1.13;0.80;;;;;;;;;;4974194;28;20062;-64
2021/04/12 00:36:56;;;;;;;0.73;0.50;;;;;;;;;;4969716;28;20039;-64
2021/04/12 00:39:46;;;;;;;1.17;0.50;;;;;;;;;;4968765;28;20074;-64
2021/04/12 00:42:30;;;;;;;0.85;0.45;;;;;;;;;;4983480;28;20082;-64
2021/04/12 00:45:14;;;;;;;1.02;0.60;;;;;;;;;;4985167;28;20034;-64
2021/04/12 00:47:52;;;;;;;0.85;0.40;;;;;;;;;;4984913;28;20122;-64
2021/04/12 00:50:27;;;;;;;0.60;0.50;;;;;;;;;;4970004;28;20047;-64
2021/04/12 00:53:01;;;;;;;0.63;0.40;;;;;;;;;;4981982;28;20094;-64
2021/04/12 00:56:10;;;;;;;0.98;0.52;;;;;;;;;;4984672;28;20544;-64
2021/04/12 00:58:36;;;;;;;1.42;0.65;;;;;;;;;;4888091;29;20044;-64
2021/04/12 01:01:20;;;;;;;1.00;0.70;;;;;;;;;;4969043;28;20469;-64
2021/04/12 01:04:16;;;;;;;1.75;0.60;;;;;;;;;;4967694;28;20113;-64
2021/04/12 01:06:51;;;;;;;1.52;0.70;;;;;;;;;;4985493;28;20923;-64
2021/04/12 01:09:34;;;;;;;1.48;0.60;;;;;;;;;;4983340;28;20161;-64
2021/04/12 01:12:06;;;;;;;1.23;0.70;;;;;;;;;;4982513;28;20562;-64
2021/04/12 01:14:53;;;;;;;1.37;0.70;;;;;;;;;;4983755;28;20531;-64
2021/04/12 01:17:27;;;;;;;1.23;0.70;;;;;;;;;;4984177;28;20338;-64
2021/04/12 01:20:40;;;;;;;1.05;0.50;;;;;;;;;;4983817;28;20054;-64
2021/04/12 01:23:44;;;;;;;1.25;0.60;;;;;;;;;;4985031;28;20537;-64
2021/04/12 01:26:27;;;;;;;1.65;0.90;;;;;;;;;;4984814;28;20054;-64
2021/04/12 01:29:31;;;;;;;1.35;0.70;;;;;;;;;;4984971;28;20835;-64
2021/04/12 01:32:34;;;;;;;1.20;0.60;;;;;;;;;;4981356;28;20042;-64
2021/04/12 01:35:57;;;;;;;0.80;0.63;;;;;;;;;;4982049;28;20055;-64
2021/04/12 01:38:36;;;;;;;0.98;0.70;;;;;;;;;;4937188;28;20108;-64
2021/04/12 01:41:19;;;;;;;2.25;0.80;;;;;;;;;;4926841;28;20170;-64
2021/04/12 01:44:03;;;;;;;1.60;0.80;;;;;;;;;;4974740;28;20055;-64
2021/04/12 01:46:32;;;;;;;2.05;0.90;;;;;;;;;;4984223;28;20046;-64
2021/04/12 01:49:22;;;;;;;1.23;0.75;;;;;;;;;;4962482;28;20047;-64
2021/04/12 01:52:15;;;;;;;1.10;0.98;;;;;;;;;;4983546;28;20051;-64
2021/04/12 01:54:59;;;;;;;0.98;0.70;;;;;;;;;;4983290;28;20039;-64
2021/04/12 01:57:48;;;;;;;1.30;0.80;;;;;;;;;;4982231;28;20045;-64
2021/04/12 02:00:28;;;;;;;1.70;0.77;;;;;;;;;;4983986;28;20567;-64
2021/04/12 02:03:07;;;;;;;2.05;0.95;;;;;;;;;;4984025;28;20031;-64
2021/04/12 02:05:51;;;;;;;2.22;1.20;;;;;;;;;;4981882;28;20066;-64
2021/04/12 02:08:19;;;;;;;2.20;1.00;;;;;;;;;;4982423;28;20031;-64
2021/04/12 02:11:08;;;;;;;2.03;1.10;;;;;;;;;;4982733;28;20777;-64
2021/04/12 02:14:08;;;;;;;1.58;0.93;;;;;;;;;;4974990;28;20063;-64
2021/04/12 02:16:42;;;;;;;1.10;0.60;;;;;;;;;;4982275;28;20045;-64
2021/04/12 02:19:32;;;;;;;1.38;0.90;;;;;;;;;;4981381;28;20110;-64
2021/04/12 02:22:35;;;;;;;1.58;0.80;;;;;;;;;;4982764;28;20181;-64
2021/04/12 02:25:36;;;;;;;1.50;0.80;;;;;;;;;;4982773;28;20042;-64
2021/04/12 02:28:25;;;;;;;2.55;1.08;;;;;;;;;;4981544;28;20046;-64
2021/04/12 02:31:21;;;;;;;1.33;0.80;;;;;;;;;;4981574;28;20035;-64
2021/04/12 02:33:56;;;;;;;1.08;0.80;;;;;;;;;;4983029;28;20185;-64
2021/04/12 02:36:37;;;;;;;0.90;0.57;;;;;;;;;;4983677;28;20210;-64
2021/04/12 02:39:40;;;;;;;1.85;0.52;;;;;;;;;;4982068;28;20049;-64
2021/04/12 02:42:10;;;;;;;1.38;0.68;;;;;;;;;;4968204;28;20126;-64
2021/04/12 02:44:57;;;;;;;0.95;0.63;;;;;;;;;;4966084;28;20122;-64
2021/04/12 02:47:44;;;;;;;1.10;0.50;;;;;;;;;;4982916;28;20077;-64
2021/04/12 02:50:32;;;;;;;1.13;0.60;;;;;;;;;;4982650;28;20090;-64
2021/04/12 02:53:13;;;;;;;0.93;0.60;;;;;;;;;;4980933;28;20039;-64
2021/04/12 02:56:13;;;;;;;0.82;0.50;;;;;;;;;;4979135;28;20042;-64
2021/04/12 02:58:54;;;;;;;1.10;0.50;;;;;;;;;;4983502;28;20031;-64
2021/04/12 03:01:41;;;;;;;1.60;0.70;;;;;;;;;;4982350;28;20035;-64
2021/04/12 03:04:22;;;;;;;1.48;0.80;;;;;;;;;;4982825;28;20039;-64
2021/04/12 03:06:59;;;;;;;0.90;0.73;;;;;;;;;;4982292;28;20038;-64
2021/04/12 03:10:10;;;;;;;1.02;0.65;;;;;;;;;;4982720;28;20110;-64
2021/04/12 03:12:50;;;;;;;1.45;0.77;;;;;;;;;;4968245;28;20059;-64
2021/04/12 03:15:38;;;;;;;1.60;0.90;;;;;;;;;;4980134;28;20548;-64
2021/04/12 03:18:46;;;;;;;2.28;0.60;;;;;;;;;;4982018;28;20572;-64
2021/04/12 03:21:31;;;;;;;1.17;0.70;;;;;;;;;;4954030;28;20063;-64
2021/04/12 03:24:19;;;;;;;1.27;0.60;;;;;;;;;;4981951;28;20034;-64
2021/04/12 03:26:50;;;;;;;0.98;0.50;;;;;;;;;;4982121;28;20494;-64
2021/04/12 03:29:42;;;;;;;1.43;0.80;;;;;;;;;;4980609;28;20038;-64
2021/04/12 03:32:34;;;;;;;1.30;0.70;;;;;;;;;;4964361;28;20270;-64
2021/04/12 03:35:29;;;;;;;2.00;0.80;;;;;;;;;;4981095;28;20055;-64
2021/04/12 03:38:26;;;;;;;1.55;0.80;;;;;;;;;;4940493;28;20057;-64
2021/04/12 03:41:13;;;;;;;1.85;0.75;;;;;;;;;;4986445;28;20034;-64
2021/04/12 03:43:56;;;;;;;1.35;0.82;;;;;;;;;;4985324;28;20081;-64
2021/04/12 03:46:53;;;;;;;1.02;0.90;;;;;;;;;;4985340;28;20531;-64
2021/04/12 03:49:24;;;;;;;1.60;0.90;;;;;;;;;;4969031;28;20073;-64
2021/04/12 03:52:17;;;;;;;1.35;0.90;;;;;;;;;;4984497;28;20066;-64
2021/04/12 03:55:02;;;;;;;1.75;0.90;;;;;;;;;;4984091;28;20038;-64
2021/04/12 03:57:58;;;;;;;0.73;0.57;;;;;;;;;;4985149;28;20039;-64
2021/04/12 04:00:36;;;;;;;0.93;0.60;;;;;;;;;;4983383;28;20026;-64
2021/04/12 04:03:37;;;;;;;1.63;0.75;;;;;;;;;;4985917;28;20031;-64
2021/04/12 04:06:18;;;;;;;2.03;0.80;;;;;;;;;;4986214;28;20545;-64
2021/04/12 04:08:55;;;;;;;1.13;0.77;;;;;;;;;;4986036;28;20042;-65
2021/04/12 04:11:35;;;;;;;0.85;0.65;;;;;;;;;;4985498;28;20162;-64
2021/04/12 04:14:04;;;;;;;1.25;0.75;;;;;;;;;;4985474;28;20050;-65
2021/04/12 04:16:48;;;;;;;1.55;0.80;;;;;;;;;;4984770;28;20050;-64
2021/04/12 04:19:41;;;;;;;1.33;0.88;;;;;;;;;;4984850;28;20043;-64
2021/04/12 04:22:28;;;;;;;1.00;0.90;;;;;;;;;;4950380;28;20081;-64
2021/04/12 04:24:56;;;;;;;1.63;0.90;;;;;;;;;;4984760;28;20038;-64
2021/04/12 04:27:35;;;;;;;2.80;1.10;;;;;;;;;;4984081;28;20433;-64
2021/04/12 04:30:13;;;;;;;2.70;1.33;;;;;;;;;;4982853;28;20043;-64
2021/04/12 04:32:57;;;;;;;2.17;1.25;;;;;;;;;;4984378;28;20037;-64
2021/04/12 04:35:52;;;;;;;1.70;1.10;;;;;;;;;;4985385;28;20050;-64
2021/04/12 04:38:35;;;;;;;1.08;0.90;;;;;;;;;;4950149;28;20046;-64
2021/04/12 04:41:23;;;;;;;2.28;1.08;;;;;;;;;;4984019;28;20489;-64
2021/04/12 04:44:25;;;;;;;2.53;1.17;;;;;;;;;;4984227;28;20058;-64
2021/04/12 04:47:06;;;;;;;;;;;;;;;;;;4969028;28;20491;-64
2021/04/12 04:49:40;;;;;;;1.75;0.90;;;;;;;;;;4984098;28;19922;-64
2021/04/12 04:52:43;;;;;;;1.50;1.00;;;;;;;;;;4967549;28;21468;-64
2021/04/12 04:55:24;;;;;;;1.63;1.10;;;;;;;;;;4982534;28;20043;-64
2021/04/12 04:58:16;;;;;;;1.77;1.13;;;;;;;;;;4983254;28;20031;-64
2021/04/12 05:00:51;;;;;;;1.02;0.90;;;;;;;;;;4983679;28;20687;-64
2021/04/12 05:03:37;;;;;;;1.80;1.00;;;;;;;;;;4983054;28;20034;-64
2021/04/12 05:06:40;;;;;;;1.33;0.95;;;;;;;;;;4982506;28;20042;-64
2021/04/12 05:09:39;;;;;;;1.95;1.00;;;;;;;;;;4984086;28;20788;-64
2021/04/12 05:12:32;;;;;;;1.40;0.80;;;;;;;;;;4982196;28;20491;-65
2021/04/12 05:15:32;;;;;;;1.90;1.00;;;;;;;;;;4981216;28;20042;-65
2021/04/12 05:18:28;;;;;;;1.38;1.00;;;;;;;;;;4983962;28;20035;-65
2021/04/12 05:21:31;;;;;;;4.38;2.13;;;;;;;;;;4984025;28;20071;-65
2021/04/12 05:24:12;;;;;;;4.55;1.52;;;;;;;;;;4983720;28;20560;-65
2021/04/12 05:27:02;;;;;;;2.67;1.55;;;;;;;;;;4983046;28;20043;-65
2021/04/12 05:29:48;;;;;;;3.85;2.20;;;;;;;;;;4983914;28;20037;-65
2021/04/12 05:32:38;;;;;;;3.25;1.40;;;;;;;;;;4982535;28;20030;-65
2021/04/12 05:35:23;;;;;;;4.50;1.80;;;;;;;;;;4982999;28;20051;-65
2021/04/12 05:38:02;;;;;;;3.08;1.60;;;;;;;;;;4981117;28;20143;-65
2021/04/12 05:40:46;;;;;;;1.50;1.10;;;;;;;;;;4980259;28;20960;-65
2021/04/12 05:43:30;;;;;;;3.22;1.70;;;;;;;;;;4983700;28;20576;-65
2021/04/12 05:46:16;;;;;;;1.40;1.10;;;;;;;;;;4967274;28;20027;-65
2021/04/12 05:49:07;;;;;;;1.75;1.60;;;;;;;;;;4984196;28;20041;-65
2021/04/12 05:51:47;;;;;;;3.90;2.80;;;;;;;;;;4983019;28;20609;-65
2021/04/12 05:54:31;;;;;;;2.22;1.63;;;;;;;;;;4983816;28;20050;-65
2021/04/12 05:57:13;;;;;;;2.25;1.13;;;;;;;;;;4983724;28;20042;-65
2021/04/12 05:59:48;;;;;;;;;;;;;;;;;;4984886;28;20150;-65
2021/04/12 06:02:16;;;;;;;2.60;1.20;;;;;;;;;;4984074;28;20427;-64
2021/04/12 06:04:42;;;;;;;2.90;1.60;;;;;;;;;;4983360;28;20086;-64
2021/04/12 06:07:30;;;;;;;3.30;1.35;;;;;;;;;;4982979;28;20038;-64
2021/04/12 06:10:34;;;;;;;1.55;1.15;;;;;;;;;;4981479;28;20612;-64
2021/04/12 06:13:21;;;;;;;1.30;1.10;;;;;;;;;;4951742;28;20081;-64
2021/04/12 06:16:12;;;;;;;1.85;1.10;;;;;;;;;;4969150;28;20038;-64
2021/04/12 06:19:32;;;;;;;1.20;1.08;;;;;;;;;;4982096;28;20039;-64
2021/04/12 06:22:29;;;;;;;1.92;1.20;;;;;;;;;;4943507;28;20057;-64
2021/04/12 06:25:37;;;;;;;2.35;1.27;;;;;;;;;;4983115;28;20038;-64
2021/04/12 06:28:37;;;;;;;1.65;1.00;;;;;;;;;;4980898;28;20035;-64
2021/04/12 06:31:09;;;;;;;2.83;1.35;;;;;;;;;;4982865;28;20037;-64
2021/04/12 06:33:35;;;;;;;1.80;1.00;;;;;;;;;;4983225;28;20504;-64
2021/04/12 06:36:26;;;;;;;1.88;1.17;;;;;;;;;;4981007;28;20050;-64
2021/04/12 06:39:07;;;;;;;7.45;4.88;;;;;;;;;;4983105;28;20038;-64
2021/04/12 06:41:54;;;;;;;1.70;1.30;;;;;;;;;;4983206;28;20046;-64
2021/04/12 06:44:44;;;;;;;1.65;1.08;;;;;;;;;;4983410;28;20460;-64
2021/04/12 06:47:28;;;;;;;3.55;1.75;;;;;;;;;;4964505;28;20039;-63
2021/04/12 06:50:06;;;;;;;1.48;1.02;;;;;;;;;;4982348;28;20528;-64
2021/04/12 06:53:08;;;;;;;1.20;1.10;;;;;;;;;;4983413;28;20804;-64
2021/04/12 06:55:53;;;;;;;2.95;1.10;;;;;;;;;;4984022;28;20047;-64
2021/04/12 06:58:38;;;;;;;3.25;1.73;;;;;;;;;;4982756;28;20039;-64
2021/04/12 07:01:13;;;;;;;3.55;1.55;;;;;;;;;;4983834;28;20109;-64
2021/04/12 07:04:03;;;;;;;3.13;1.55;;;;;;;;;;4983843;28;20035;-64
2021/04/12 07:07:06;;;;;;;2.88;1.25;;;;;;;;;;4962924;28;20832;-64
2021/04/12 07:09:37;;;;;;;;;;;;;;;;;;4982856;28;20035;-64
2021/04/12 07:12:41;;;;;;;1.60;1.00;;;;;;;;;;4983312;28;19922;-64
2021/04/12 07:15:44;;;;;;;2.03;1.10;;;;;;;;;;4927059;28;20048;-64
2021/04/12 07:18:24;;;;;;;2.35;1.23;;;;;;;;;;4928869;28;20121;-63
2021/04/12 07:21:21;;;;;;;2.72;1.20;;;;;;;;;;4974942;28;20134;-64
2021/04/12 07:24:14;;;;;;;2.80;1.10;;;;;;;;;;4986487;28;20035;-63
2021/04/12 07:27:11;;;;;;;3.95;1.55;;;;;;;;;;4987063;28;20027;-63
2021/04/12 07:29:55;;;;;;;2.63;1.27;;;;;;;;;;4972713;28;20211;-63
2021/04/12 07:32:58;;;;;;;2.13;1.10;;;;;;;;;;4986015;28;20512;-64
2021/04/12 07:35:42;;;;;;;2.83;1.27;;;;;;;;;;4986521;28;20094;-64
2021/04/12 07:38:45;;;;;;;2.60;1.25;;;;;;;;;;4987017;28;20038;-63
2021/04/12 07:41:52;;;;;;;1.55;1.10;;;;;;;;;;4986867;28;20627;-63
2021/04/12 07:44:30;;;;;;;2.65;1.50;;;;;;;;;;4965503;28;20047;-63
2021/04/12 07:47:30;;;;;;;2.33;1.20;;;;;;;;;;4985427;28;20135;-63
2021/04/12 07:50:02;;;;;;;2.15;1.13;;;;;;;;;;4985528;28;20037;-64
2021/04/12 07:52:33;;;;;;;1.90;1.00;;;;;;;;;;4985494;28;20062;-64
2021/04/12 07:55:01;;;;;;;1.80;1.00;;;;;;;;;;4985609;28;20043;-63
2021/04/12 07:57:46;;;;;;;1.80;1.30;;;;;;;;;;4985825;28;20062;-63
2021/04/12 08:00:50;;;;;;;1.55;1.00;;;;;;;;;;4985574;28;20121;-63
2021/04/12 08:03:34;;;;;;;2.20;0.98;;;;;;;;;;4976051;28;20047;-63
2021/04/12 08:06:36;;;;;;;1.45;1.00;;;;;;;;;;4986353;28;20031;-63
2021/04/12 08:09:30;;;;;;;1.40;1.10;;;;;;;;;;4986051;28;20149;-63
2021/04/12 08:12:17;;;;;;;1.33;0.82;;;;;;;;;;4984818;28;20134;-64
2021/04/12 08:15:12;;;;;;;1.98;0.88;;;;;;;;;;4986002;28;20047;-64
2021/04/12 08:18:02;;;;;;;1.38;0.82;;;;;;;;;;4984729;28;20567;-64
2021/04/12 08:21:01;;;;;;;1.58;0.90;;;;;;;;;;4984125;28;20603;-64
2021/04/12 08:23:53;;;;;;;1.02;0.80;;;;;;;;;;4984273;28;20046;-64
2021/04/12 08:26:46;;;;;;;3.55;1.00;;;;;;;;;;4983277;28;20041;-64
2021/04/12 08:29:45;;;;;;;2.25;1.30;;;;;;;;;;4984657;28;20127;-64
2021/04/12 08:32:44;;;;;;;2.05;1.02;;;;;;;;;;4983732;28;20501;-66
2021/04/12 08:35:22;;;;;;;1.02;0.70;;;;;;;;;;4985068;28;20039;-63
2021/04/12 08:38:09;;;;;;;1.45;0.70;;;;;;;;;;4983064;28;20540;-64
2021/04/12 08:41:02;;;;;;;2.67;0.90;;;;;;;;;;4984275;28;20928;-65
2021/04/12 08:43:40;;;;;;;1.67;0.80;;;;;;;;;;4984669;28;20039;-65
2021/04/12 08:46:27;;;;;;;1.00;0.80;;;;;;;;;;4985408;28;20026;-65
2021/04/12 08:49:12;;;;;;;1.77;0.80;;;;;;;;;;4985820;28;20109;-65
2021/04/12 08:51:44;;;;;;;2.13;0.80;;;;;;;;;;4984541;28;20121;-65
2021/04/12 08:54:19;;;;;;;2.10;0.80;;;;;;;;;;4986200;28;20043;-65
2021/04/12 08:57:10;;;;;;;1.67;0.73;;;;;;;;;;4985749;28;20092;-65
2021/04/12 08:59:55;;;;;;;1.13;0.65;;;;;;;;;;4982954;28;20027;-65
2021/04/12 09:02:58;;;;;;;2.53;0.80;;;;;;;;;;4981256;28;20481;-65
2021/04/12 09:05:35;;;;;;;3.08;0.77;;;;;;;;;;4984156;28;20068;-64
2021/04/12 09:08:20;;;;;;;9.38;5.20;;;;;;;;;;4984791;28;21271;-65
2021/04/12 09:11:11;;;;;;;2.08;0.82;;;;;;;;;;4984307;28;20043;-64
2021/04/12 09:13:54;;;;;;;1.30;0.80;;;;;;;;;;4984659;28;20043;-64
2021/04/12 09:16:38;;;;;;;1.88;1.10;;;;;;;;;;4982218;28;20493;-64
2021/04/12 09:19:41;;;;;;;1.77;1.00;;;;;;;;;;4983206;28;20037;-64
2021/04/12 09:22:25;;;;;;;;;;;;;;;;;;4982278;28;20050;-65
2021/04/12 09:25:16;;;;;;;1.45;0.70;;;;;;;;;;4997104;28;19918;-64
2021/04/12 09:27:56;;;;;;;1.33;0.80;;;;;;;;;;4983979;28;20035;-63
2021/04/12 09:30:21;;;;;;;1.35;0.70;;;;;;;;;;4965443;28;20043;-63
2021/04/12 09:33:23;;;;;;;1.00;0.90;;;;;;;;;;4984669;28;20097;-62
2021/04/12 09:36:13;;;;;;;1.20;0.65;;;;;;;;;;4982405;28;20053;-64
2021/04/12 09:39:06;;;;;;;1.70;0.63;;;;;;;;;;4983488;28;20089;-64
2021/04/12 09:41:56;;;;;;;1.23;0.68;;;;;;;;;;4984063;28;20038;-66
2021/04/12 09:44:28;;;;;;;1.30;0.68;;;;;;;;;;4983195;28;20042;-64
2021/04/12 09:47:02;;;;;;;1.63;1.00;;;;;;;;;;4981946;28;20041;-64
2021/04/12 09:49:45;;;;;;;0.50;0.40;;;;;;;;;;4983213;28;20524;-64
2021/04/12 09:52:32;;;;;;;0.88;0.50;;;;;;;;;;4982975;28;20509;-65
2021/04/12 09:55:00;;;;;;;1.73;0.60;;;;;;;;;;4982382;28;20130;-65
2021/04/12 09:58:21;;;;;;;0.80;0.50;;;;;;;;;;4983052;28;20051;-65
2021/04/12 10:01:19;;;;;;;1.20;0.60;;;;;;;;;;4912469;28;20055;-65
2021/04/12 10:04:43;;;;;;;0.93;0.50;;;;;;;;;;4980885;28;20177;-65
2021/04/12 10:07:15;;;;;;;1.77;0.70;;;;;;;;;;4964926;28;20086;-65
2021/04/12 10:09:58;;;;;;;1.20;0.60;;;;;;;;;;4962463;28;20369;-65
2021/04/12 10:12:25;;;;;;;1.58;0.77;;;;;;;;;;4967368;28;20130;-65
2021/04/12 10:14:52;;;;;;;0.93;0.73;;;;;;;;;;4983801;28;20045;-65
2021/04/12 10:17:20;;;;;;;1.17;1.08;;;;;;;;;;4982589;28;20378;-65
2021/04/12 10:19:50;;;;;;;1.92;0.98;;;;;;;;;;4964358;28;20026;-66
2021/04/12 10:22:17;;;;;;;0.85;0.57;;;;;;;;;;4966040;28;20600;-67
2021/04/12 10:24:56;;;;;;;1.17;0.73;;;;;;;;;;4966047;28;20054;-68
2021/04/12 10:28:03;;;;;;;0.50;0.47;;;;;;;;;;4979963;28;20054;-67
2021/04/12 10:30:30;;;;;;;1.60;0.70;;;;;;;;;;4972059;28;20042;-69
2021/04/12 10:32:57;;;;;;;1.02;0.70;;;;;;;;;;4981662;28;20035;-68
2021/04/12 10:35:28;;;;;;;2.00;0.80;;;;;;;;;;4983936;28;20058;-69
2021/04/12 10:38:08;;;;;;;1.30;0.83;;;;;;;;;;4982512;28;20086;-71
2021/04/12 10:40:35;;;;;;;1.70;0.65;;;;;;;;;;4982631;28;20062;-72
2021/04/12 10:43:13;;;;;;;1.20;0.60;;;;;;;;;;4983227;28;20039;-73
2021/04/12 10:45:45;;;;;;;0.88;0.52;;;;;;;;;;4984063;28;20035;-73
2021/04/12 10:48:19;;;;;;;;;;;;;;;;;;4978204;28;20049;-73
2021/04/12 10:50:56;;;;;;;2.35;0.80;;;;;;;;;;4982316;28;19917;-72
2021/04/12 10:53:34;;;;;;;0.68;0.50;;;;;;;;;;4982178;28;20034;-72
2021/04/12 10:56:29;;;;;;;0.82;0.40;;;;;;;;;;4981186;28;20054;-69
2021/04/12 10:59:22;;;;;;;0.63;0.45;;;;;;;;;;4973180;28;20051;-71
2021/04/12 11:02:02;;;;;;;1.33;0.60;;;;;;;;;;4981260;28;20055;-70
2021/04/12 11:04:53;;;;;;;1.35;0.63;;;;;;;;;;4965752;28;20117;-73
2021/04/12 11:07:39;;;;;;;1.42;0.55;;;;;;;;;;4975314;28;20065;-68
2021/04/12 11:10:23;;;;;;;0.70;0.50;;;;;;;;;;4980696;28;20966;-70
2021/04/12 11:12:49;;;;;;;1.48;0.63;;;;;;;;;;4982804;28;20078;-70
2021/04/12 11:15:21;;;;;;;0.50;0.50;;;;;;;;;;4982122;28;20137;-70
2021/04/12 11:18:05;;;;;;;0.60;0.50;;;;;;;;;;4962753;28;20046;-68
2021/04/12 11:20:51;;;;;;;0.90;0.52;;;;;;;;;;4979872;28;20038;-69
2021/04/12 11:23:22;;;;;;;2.38;0.80;;;;;;;;;;4982466;28;20141;-68
2021/04/12 11:26:16;;;;;;;0.82;0.50;;;;;;;;;;4981810;28;20106;-68
2021/04/12 11:28:53;;;;;;;0.60;0.52;;;;;;;;;;4960680;28;20099;-70
2021/04/12 11:31:53;;;;;;;1.02;0.52;;;;;;;;;;4982044;28;20043;-69
2021/04/12 11:34:24;;;;;;;2.22;0.60;;;;;;;;;;4982715;28;20135;-71
2021/04/12 11:37:10;;;;;;;0.70;0.50;;;;;;;;;;4980654;28;20042;-69
2021/04/12 11:39:37;;;;;;;1.10;0.40;;;;;;;;;;4982266;28;20070;-69
2021/04/12 11:42:08;;;;;;;0.50;0.40;;;;;;;;;;4981527;28;20026;-69
2021/04/12 11:44:55;;;;;;;0.67;0.47;;;;;;;;;;4965523;28;20094;-69
2021/04/12 11:47:58;;;;;;;1.70;0.47;;;;;;;;;;4981011;28;20043;-69
2021/04/12 11:50:34;;;;;;;0.95;0.60;;;;;;;;;;4980849;28;20038;-69
2021/04/12 11:53:27;;;;;;;0.52;0.40;;;;;;;;;;4980873;28;20121;-66
2021/04/12 11:56:01;;;;;;;1.42;0.65;;;;;;;;;;4995883;28;20050;-65
2021/04/12 11:58:33;;;;;;;0.43;0.43;;;;;;;;;;4983120;28;20056;-66
2021/04/12 12:01:03;;;;;;;1.48;0.60;;;;;;;;;;4985756;28;21125;-66
2021/04/12 12:03:47;;;;;;;0.50;0.40;;;;;;;;;;4984260;28;20041;-67
2021/04/12 12:06:25;;;;;;;1.13;0.50;;;;;;;;;;4984012;28;20105;-68
2021/04/12 12:08:56;;;;;;;0.45;0.45;;;;;;;;;;4983565;28;20043;-65
2021/04/12 12:11:49;;;;;;;0.40;0.40;;;;;;;;;;4968502;28;20034;-66
2021/04/12 12:14:46;;;;;;;1.05;0.45;;;;;;;;;;4986031;28;20043;-65
2021/04/12 12:17:20;;;;;;;0.98;0.60;;;;;;;;;;4942479;28;20051;-67
2021/04/12 12:19:51;;;;;;;1.85;0.60;;;;;;;;;;4969249;28;20063;-65
2021/04/12 12:22:22;;;;;;;1.17;0.52;;;;;;;;;;4984466;28;20043;-67
2021/04/12 12:25:01;;;;;;;1.13;0.50;;;;;;;;;;4983922;28;20042;-68
2021/04/12 12:27:32;;;;;;;0.52;0.50;;;;;;;;;;4983854;28;20114;-65
2021/04/12 12:30:12;;;;;;;1.30;0.40;;;;;;;;;;4999537;28;20041;-65
2021/04/12 12:32:48;;;;;;;0.82;0.50;;;;;;;;;;4968564;28;20508;-67
2021/04/12 12:35:19;;;;;;;1.15;0.40;;;;;;;;;;4983778;28;20054;-67
2021/04/12 12:38:14;;;;;;;1.10;0.50;;;;;;;;;;4984561;28;20429;-67
2021/04/12 12:40:51;;;;;;;0.50;0.40;;;;;;;;;;4968142;28;20039;-67
2021/04/12 12:43:27;;;;;;;0.88;0.40;;;;;;;;;;4969274;28;20035;-67
2021/04/12 12:45:53;;;;;;;0.40;0.30;;;;;;;;;;4968820;28;20039;-67
2021/04/12 12:48:23;;;;;;;0.80;0.60;;;;;;;;;;4967457;28;20481;-66
2021/04/12 12:51:16;;;;;;;0.60;0.50;;;;;;;;;;4985121;28;20114;-66
2021/04/12 12:53:44;;;;;;;1.13;0.30;;;;;;;;;;4983525;28;20078;-66
2021/04/12 12:56:24;;;;;;;0.40;0.30;;;;;;;;;;4983150;28;20038;-66
2021/04/12 12:58:58;;;;;;;0.90;0.40;;;;;;;;;;4981361;28;20035;-66
2021/04/12 13:01:25;;;;;;;0.50;0.50;;;;;;;;;;4984896;28;20042;-66
2021/04/12 13:03:51;;;;;;;2.00;0.60;;;;;;;;;;4967196;28;20119;-67
2021/04/12 13:06:27;;;;;;;1.35;0.60;;;;;;;;;;4985707;28;20572;-66
2021/04/12 13:08:57;;;;;;;0.90;0.55;;;;;;;;;;4982755;28;20031;-67
2021/04/12 13:11:42;;;;;;;1.90;0.70;;;;;;;;;;4967523;28;20042;-68
2021/04/12 13:14:37;;;;;;;0.63;0.50;;;;;;;;;;4949329;28;20049;-69
2021/04/12 13:17:25;;;;;;;1.52;0.52;;;;;;;;;;4977089;28;20061;-69
2021/04/12 13:19:53;;;;;;;0.85;0.50;;;;;;;;;;4982460;28;20054;-68
2021/04/12 13:22:46;;;;;;;0.45;0.45;;;;;;;;;;4966344;28;20042;-66
2021/04/12 13:25:36;;;;;;;0.50;0.50;;;;;;;;;;4981717;28;20074;-66
2021/04/12 13:28:12;;;;;;;0.40;0.40;;;;;;;;;;4982572;28;20039;-68
2021/04/12 13:30:41;;;;;;;0.55;0.40;;;;;;;;;;4965479;28;20121;-66
2021/04/12 13:33:24;;;;;;;0.85;0.40;;;;;;;;;;4965284;28;20509;-67
2021/04/12 13:35:53;;;;;;;1.33;0.50;;;;;;;;;;4984597;28;20074;-68
2021/04/12 13:38:21;;;;;;;0.52;0.30;;;;;;;;;;4966453;28;20046;-66
2021/04/12 13:41:03;;;;;;;1.58;0.50;;;;;;;;;;4982441;28;20035;-67
2021/04/12 13:43:30;;;;;;;0.60;0.40;;;;;;;;;;4982467;28;20035;-65
2021/04/12 13:45:55;;;;;;;1.25;0.60;;;;;;;;;;4967869;28;20089;-67
2021/04/12 13:48:22;;;;;;;2.00;0.60;;;;;;;;;;4980976;28;20035;-66
2021/04/12 13:51:00;;;;;;;1.20;0.40;;;;;;;;;;4981697;28;20037;-67
2021/04/12 13:53:36;;;;;;;1.50;0.52;;;;;;;;;;4983529;28;20035;-65
2021/04/12 13:56:07;;;;;;;0.40;0.40;;;;;;;;;;4982399;28;20390;-66
2021/04/12 13:58:38;;;;;;;0.60;0.40;;;;;;;;;;4983216;28;20034;-67
2021/04/12 14:01:14;;;;;;;0.95;0.45;;;;;;;;;;4982138;28;20050;-67
2021/04/12 14:03:53;;;;;;;1.17;0.50;;;;;;;;;;4983834;28;20038;-66
2021/04/12 14:06:34;;;;;;;0.38;0.38;;;;;;;;;;4999064;28;20035;-70
2021/04/12 14:09:02;;;;;;;1.42;0.50;;;;;;;;;;4997111;28;20090;-69
2021/04/12 14:11:31;;;;;;;0.77;0.40;;;;;;;;;;4982470;28;20035;-67
2021/04/12 14:14:06;;;;;;;0.43;0.32;;;;;;;;;;4965283;28;20039;-65
2021/04/12 14:16:33;;;;;;;0.95;0.50;;;;;;;;;;4966326;28;20042;-67
2021/04/12 14:19:12;;;;;;;0.50;0.40;;;;;;;;;;4982860;28;20037;-66
2021/04/12 14:21:40;;;;;;;0.55;0.40;;;;;;;;;;4981157;28;20039;-66
2021/04/12 14:24:31;;;;;;;0.80;0.35;;;;;;;;;;4983177;28;20042;-66
2021/04/12 14:27:01;;;;;;;0.95;0.40;;;;;;;;;;4982382;28;20051;-66
2021/04/12 14:29:47;;;;;;;0.68;0.57;;;;;;;;;;4951494;28;20042;-66
2021/04/12 14:32:15;;;;;;;0.43;0.35;;;;;;;;;;4969728;28;20042;-66
2021/04/12 14:34:44;;;;;;;1.20;0.50;;;;;;;;;;4965381;28;21137;-67
2021/04/12 14:37:29;;;;;;;2.00;0.60;;;;;;;;;;4967100;28;20027;-65
2021/04/12 14:40:18;;;;;;;1.20;0.70;;;;;;;;;;4965537;28;20129;-65
2021/04/12 14:42:49;;;;;;;0.85;0.40;;;;;;;;;;4980417;28;20053;-65
2021/04/12 14:45:20;;;;;;;0.38;0.30;;;;;;;;;;4965957;28;20038;-66
2021/04/12 14:47:51;;;;;;;0.55;0.40;;;;;;;;;;4966484;28;20030;-66
2021/04/12 14:50:19;;;;;;;0.80;0.50;;;;;;;;;;4965238;28;20126;-66
2021/04/12 14:52:48;;;;;;;3.13;0.68;;;;;;;;;;4982198;28;20038;-66
2021/04/12 14:55:24;;;;;;;0.80;0.47;;;;;;;;;;4981990;28;20043;-66
2021/04/12 14:57:51;;;;;;;1.20;0.50;;;;;;;;;;4965480;28;20039;-66
2021/04/12 15:00:22;;;;;;;0.73;0.45;;;;;;;;;;4967426;28;20043;-66
2021/04/12 15:02:50;;;;;;;0.60;0.50;;;;;;;;;;4982232;28;20787;-66
2021/04/12 15:05:19;;;;;;;1.23;0.40;;;;;;;;;;4982100;28;20031;-65
2021/04/12 15:07:47;;;;;;;0.57;0.30;;;;;;;;;;4981480;28;20047;-66
2021/04/12 15:10:36;;;;;;;0.60;0.40;;;;;;;;;;4998587;28;20502;-66
2021/04/12 15:13:03;;;;;;;0.75;0.43;;;;;;;;;;4982946;28;20063;-66
2021/04/12 15:15:40;;;;;;;0.95;0.52;;;;;;;;;;4964894;28;20879;-67
2021/04/12 15:18:12;;;;;;;0.50;0.40;;;;;;;;;;4966455;28;20046;-67
2021/04/12 15:20:41;;;;;;;;;;;;;;;;;;4966767;28;20038;-66
2021/04/12 15:23:18;;;;;;;0.40;0.40;;;;;;;;;;4967315;28;19929;-65
2021/04/12 15:25:54;;;;;;;1.67;0.60;;;;;;;;;;4966963;28;20031;-65
2021/04/12 15:28:24;;;;;;;1.90;0.50;;;;;;;;;;4980252;28;20039;-65
2021/04/12 15:31:32;;;;;;;1.10;0.60;;;;;;;;;;4981109;28;20034;-66
2021/04/12 15:33:59;;;;;;;0.82;0.50;;;;;;;;;;4983608;28;20027;-66
2021/04/12 15:36:47;;;;;;;0.60;0.60;;;;;;;;;;4969776;28;20039;-67
2021/04/12 15:39:26;;;;;;;1.85;0.70;;;;;;;;;;4983472;28;20047;-65
2021/04/12 15:42:02;;;;;;;1.35;0.60;;;;;;;;;;4966059;28;20476;-66
2021/04/12 15:44:30;;;;;;;0.80;0.60;;;;;;;;;;4984946;28;20035;-66
2021/04/12 15:46:59;;;;;;;0.63;0.50;;;;;;;;;;4985492;28;20035;-65
2021/04/12 15:49:32;;;;;;;0.93;0.43;;;;;;;;;;4967271;28;20117;-65
2021/04/12 15:52:15;;;;;;;0.90;0.68;;;;;;;;;;4980727;28;20049;-66
2021/04/12 15:54:51;;;;;;;0.80;0.80;;;;;;;;;;4968025;28;20043;-66
2021/04/12 15:57:20;;;;;;;0.50;0.50;;;;;;;;;;5001362;28;20034;-66
2021/04/12 15:59:53;;;;;;;0.70;0.70;;;;;;;;;;4967513;28;20094;-66
2021/04/12 16:02:33;;;;;;;0.75;0.57;;;;;;;;;;4984943;28;20146;-66
2021/04/12 16:05:40;;;;;;;1.13;0.70;;;;;;;;;;4970138;28;20034;-67
2021/04/12 16:08:08;;;;;;;1.02;0.93;;;;;;;;;;4939291;28;20036;-66
2021/04/12 16:10:53;;;;;;;0.77;0.57;;;;;;;;;;4911080;28;20033;-66
2021/04/12 16:13:37;;;;;;;0.57;0.50;;;;;;;;;;4963003;28;20106;-66
2021/04/12 16:16:05;;;;;;;1.27;0.73;;;;;;;;;;4983358;28;20093;-66
2021/04/12 16:18:49;;;;;;;0.50;0.50;;;;;;;;;;4983363;28;20027;-66
2021/04/12 16:21:22;;;;;;;0.60;0.60;;;;;;;;;;4970827;28;20070;-66